Ana Sayfa
METAR-TAF:

METAR-TAF

Havaalanları :

Edenton, Kuzey Carolina, Amerika Birleşik Devletleri

Enlem: 36-01-40N, Boylam: 076-34-02W, yükseklik: 6 m

Güncel hava durumu gözlemi

Rapor saat 08:20 UTC de 22 dakika önce yapıldı.
Rüzgar batı/güneybatıdan 7 kt
Sıcaklık 29°C
Nem 79%
Basınç 1015 hPa
Görüş mesafesi: 16.1 km
Açık gökyüzü

METAR: KEDE 220820Z AUTO 24007KT 10SM CLR 29/25 A2996 RMK AO2 T02900251

Saat: 04:42 (08:42 UTC)


TAF: eksik

4.000'den fazla havaalanı için hava durumu gözlemleri ve tahminleri (METAR ve TAF raporları).

Kullanılabilir istasyonlar harita üzerinde sarı ve kırmızı noktalarla gösterilir.

İstasyonun adını görmek için fareyi noktanın üzerinde gezdirin.

Sonrasında hava gözlem ve tahminlerini görmek için tıklayın.

Haritayı değiştirmek için: yaklaştırmak için siyah artı işaretli yeşil düğmeye ve uzaklaştırmak için de eksi işaretli düğmeye hızla tıklayın; bitişik haritalar için yeşil okları kullanın.


METAR-TAF: